Time;durP1;ratioP1;P1;durP2;ratioP2;P2;SDS_P1;SDS_P2;PMS_P1;PMS_P2;Temp;Humidity;BMP_temperature;BMP_pressure;BME280_temperature;BME280_humidity;BME280_pressure;Samples;Min_cycle;Max_cycle;Signal;HPM_P1;HPM_P2
2022/01/18 00:00:30;;;;;;;3.57;3.27;;;;;;;6.71;87.01;99461.03;5090280;28;20256;-59
2022/01/18 00:02:58;;;;;;;4.40;2.80;;;;;;;6.67;87.00;99455.94;5090268;28;20736;-59
2022/01/18 00:05:27;;;;;;;3.47;3.10;;;;;;;6.69;87.62;99472.25;5089927;28;20297;-59
2022/01/18 00:07:54;;;;;;;5.37;3.30;;;;;;;6.67;87.50;99471.41;5090044;28;20196;-58
2022/01/18 00:10:23;;;;;;;3.63;3.33;;;;;;;6.65;88.12;99475.75;5089996;28;20192;-58
2022/01/18 00:13:10;;;;;;;3.80;3.30;;;;;;;6.57;88.17;99473.25;5089918;28;20322;-59
2022/01/18 00:15:44;;;;;;;3.60;3.33;;;;;;;6.63;88.82;99482.66;5089591;28;20286;-58
2022/01/18 00:18:14;;;;;;;3.40;3.10;;;;;;;6.60;88.39;99482.69;5089626;28;20196;-58
2022/01/18 00:20:58;;;;;;;3.53;3.27;;;;;;;6.48;89.49;99479.41;5090017;28;20231;-59
2022/01/18 00:23:25;;;;;;;2.93;2.73;;;;;;;6.44;89.75;99493.19;5090084;28;20218;-59
2022/01/18 00:25:56;;;;;;;3.93;3.20;;;;;;;6.40;88.93;99473.50;5089994;28;20289;-59
2022/01/18 00:28:24;;;;;;;3.30;3.00;;;;;;;6.48;88.35;99487.16;5089816;28;20290;-59
2022/01/18 00:33:52;;;;;;;5.70;2.87;;;;;;;6.47;87.74;99500.91;5092494;28;20199;-58
2022/01/18 00:36:27;;;;;;;2.70;2.50;;;;;;;6.62;86.59;99505.03;5093585;28;20580;-59
2022/01/18 00:38:56;;;;;;;4.77;2.47;;;;;;;6.62;86.36;99512.75;5093448;28;20209;-59
2022/01/18 00:41:26;;;;;;;2.37;2.17;;;;;;;6.60;86.39;99524.81;5093463;28;20307;-58
2022/01/18 00:43:54;;;;;;;2.70;2.50;;;;;;;6.62;87.32;99519.63;5093235;28;20198;-59
2022/01/18 00:46:23;;;;;;;1.77;1.67;;;;;;;6.73;87.50;99546.16;5093625;28;20706;-59
2022/01/18 00:48:54;;;;;;;2.43;2.23;;;;;;;6.86;87.50;99532.22;5093364;28;20639;-59
2022/01/18 00:51:21;;;;;;;2.30;2.10;;;;;;;6.80;88.49;99532.28;5093287;28;20195;-59
2022/01/18 00:53:48;;;;;;;1.80;1.70;;;;;;;6.81;87.70;99545.16;5093312;28;20290;-59
2022/01/18 00:56:23;;;;;;;2.60;2.40;;;;;;;6.83;87.94;99545.16;5093064;28;20202;-59
2022/01/18 00:58:52;;;;;;;2.30;2.10;;;;;;;6.75;88.85;99528.94;5093235;28;20683;-59
2022/01/18 01:01:21;;;;;;;1.90;1.80;;;;;;;6.65;89.83;99514.44;5093344;28;20198;-59
2022/01/18 01:03:50;;;;;;;2.37;1.70;;;;;;;6.69;90.69;99513.50;5093139;28;20187;-59
2022/01/18 01:06:18;;;;;;;2.80;1.70;;;;;;;6.77;89.69;99527.19;5092984;28;20219;-59
2022/01/18 01:08:45;;;;;;;1.37;1.37;;;;;;;6.76;89.66;99521.19;5092790;28;20195;-55
2022/01/18 01:11:12;;;;;;;2.00;1.90;;;;;;;6.52;90.76;99501.72;5092679;28;20222;-55
2022/01/18 01:13:44;;;;;;;1.77;1.67;;;;;;;6.67;90.85;99528.16;5092703;28;20188;-55
2022/01/18 01:16:35;;;;;;;1.90;1.80;;;;;;;6.75;90.62;99531.50;5092693;28;20195;-59
2022/01/18 01:19:46;;;;;;;1.87;1.77;;;;;;;6.68;91.21;99520.41;5092581;28;20687;-54
2022/01/18 01:36:28;;;;;;;2.40;1.63;;;;;;;6.62;91.48;99512.75;5050099;28;20229;-59
2022/01/18 01:42:05;;;;;;;1.80;1.70;;;;;;;6.68;89.86;99545.34;5092315;28;20198;-59
2022/01/18 01:44:42;;;;;;;2.93;1.67;;;;;;;6.69;89.11;99565.94;5091834;28;20199;-59
2022/01/18 01:47:11;;;;;;;3.80;1.70;;;;;;;6.69;88.99;99585.72;5092016;28;20272;-60
2022/01/18 01:49:38;;;;;;;1.63;1.53;;;;;;;6.71;88.70;99587.44;5092039;28;20195;-58
2022/01/18 01:52:09;;;;;;;4.53;1.77;;;;;;;6.79;91.09;99607.97;5092156;28;20199;-58
2022/01/18 01:54:36;;;;;;;9.03;2.03;;;;;;;6.74;96.03;99608.03;5091854;28;20200;-58
2022/01/18 01:57:03;;;;;;;2.10;2.00;;;;;;;6.63;100.00;99621.94;5092132;28;20578;-59
2022/01/18 01:59:30;;;;;;;1.77;1.67;;;;;;;6.52;100.00;99633.22;5092141;28;20515;-59
2022/01/18 02:01:57;;;;;;;5.53;2.20;;;;;;;6.38;100.00;99629.06;5091943;28;20195;-59
2022/01/18 02:04:24;;;;;;;1.47;1.37;;;;;;;6.33;100.00;99639.41;5091831;28;20199;-56
2022/01/18 02:06:51;;;;;;;2.03;1.93;;;;;;;6.25;100.00;99641.22;5091817;28;20310;-56
2022/01/18 02:09:21;;;;;;;2.13;2.03;;;;;;;6.23;100.00;99636.94;5091398;28;20192;-53
2022/01/18 02:11:49;;;;;;;2.00;1.90;;;;;;;6.13;100.00;99634.44;5091442;28;20237;-59
2022/01/18 02:14:20;;;;;;;2.03;1.93;;;;;;;6.10;100.00;99631.03;5091647;28;20268;-55
2022/01/18 02:22:18;;;;;;;1.63;1.53;;;;;;;5.74;100.00;99655.34;5091573;28;20210;-55
2022/01/18 02:24:45;;;;;;;1.90;1.80;;;;;;;5.68;100.00;99665.69;5091538;28;20285;-55
2022/01/18 02:27:13;;;;;;;1.73;1.63;;;;;;;5.58;100.00;99675.19;5091357;28;20219;-55
2022/01/18 02:29:40;;;;;;;1.87;1.70;;;;;;;5.65;100.00;99688.88;5090999;28;20196;-54
2022/01/18 02:32:08;;;;;;;1.63;1.43;;;;;;;5.46;100.00;99688.13;5091094;28;20195;-55
2022/01/18 02:34:35;;;;;;;1.77;1.67;;;;;;;5.67;97.77;99720.63;5091445;28;20788;-58
2022/01/18 02:37:04;;;;;;;1.67;1.57;;;;;;;5.58;97.47;99726.69;5091191;28;20206;-59
2022/01/18 02:39:33;;;;;;;1.70;1.60;;;;;;;5.55;95.04;99746.44;5090974;28;20195;-56
2022/01/18 02:42:01;;;;;;;1.63;1.53;;;;;;;5.46;93.07;99739.63;5091116;28;20199;-55
2022/01/18 02:44:30;;;;;;;1.77;1.40;;;;;;;5.51;91.86;99752.47;5091106;28;20286;-55
2022/01/18 02:46:58;;;;;;;1.30;1.20;;;;;;;5.53;91.86;99761.06;5090894;28;20227;-55
2022/01/18 02:49:25;;;;;;;1.33;1.23;;;;;;;5.41;91.82;99773.13;5091136;28;20581;-55
2022/01/18 02:51:52;;;;;;;1.47;1.37;;;;;;;5.41;92.87;99764.53;5090861;28;20205;-56
2022/01/18 02:54:20;;;;;;;1.83;1.43;;;;;;;5.44;92.95;99760.22;5090426;28;20198;-56
2022/01/18 02:56:54;;;;;;;2.00;1.53;;;;;;;5.40;93.09;99771.41;5090495;28;20199;-54
2022/01/18 02:59:31;;;;;;;1.40;1.30;;;;;;;5.34;95.56;99780.84;5090544;28;20663;-55
2022/01/18 03:04:45;;;;;;;2.47;1.60;;;;;;;5.35;95.96;99806.59;5090840;28;20682;-56
2022/01/18 03:07:13;;;;;;;1.60;1.50;;;;;;;5.10;96.30;99808.34;5090672;28;20584;-56
2022/01/18 03:09:40;;;;;;;1.40;1.30;;;;;;;5.19;95.39;99838.38;5090327;28;20646;-54
2022/01/18 03:12:11;;;;;;;2.03;1.20;;;;;;;5.04;94.24;99854.69;5090594;28;20235;-55
2022/01/18 03:14:40;;;;;;;1.40;1.30;;;;;;;4.99;91.79;99860.69;5090726;28;20701;-55
2022/01/18 03:17:08;;;;;;;1.30;1.20;;;;;;;4.96;89.87;99841.00;5090756;28;20289;-55
2022/01/18 03:19:35;;;;;;;1.87;1.20;;;;;;;5.02;88.14;99876.13;5090527;28;20195;-56
2022/01/18 03:22:02;;;;;;;1.53;1.30;;;;;;;4.94;87.92;99878.72;5090451;28;20192;-56
2022/01/18 03:24:45;;;;;;;1.17;1.10;;;;;;;4.88;84.98;99883.84;5091041;28;20726;-55
2022/01/18 03:29:58;;;;;;;1.20;0.87;;;;;;;4.83;77.86;99900.16;5090429;28;20195;-56
2022/01/18 03:32:25;;;;;;;1.07;0.93;;;;;;;4.78;76.78;99904.41;5090497;28;20289;-54
2022/01/18 03:34:52;;;;;;;1.17;0.90;;;;;;;4.70;75.28;99896.69;5090364;28;20195;-55
2022/01/18 03:37:19;;;;;;;1.00;1.00;;;;;;;4.59;74.08;99906.13;5090331;28;20193;-55
2022/01/18 03:39:46;;;;;;;0.90;0.90;;;;;;;4.56;73.65;99913.81;5090207;28;20282;-59
2022/01/18 03:45:02;;;;;;;1.53;1.43;;;;;;;4.41;70.99;99922.34;5090477;28;20205;-59
2022/01/18 03:47:30;;;;;;;1.47;1.30;;;;;;;4.46;64.95;99923.22;5090718;28;20223;-59
2022/01/18 03:49:56;;;;;;;1.97;1.53;;;;;;;4.42;62.88;99915.50;5090113;28;20290;-59
2022/01/18 03:52:24;;;;;;;2.23;2.03;;;;;;;4.40;62.12;99940.34;5090481;28;20232;-58
2022/01/18 03:54:51;;;;;;;1.60;1.50;;;;;;;4.55;60.11;99946.38;5090242;28;20210;-60
2022/01/18 03:57:20;;;;;;;1.30;1.20;;;;;;;4.55;59.50;99924.94;5090176;28;20271;-59
2022/01/18 03:59:48;;;;;;;7.57;1.97;;;;;;;4.60;59.47;99957.53;5089788;28;20556;-59
2022/01/18 04:02:15;;;;;;;1.33;1.20;;;;;;;4.59;59.17;99973.81;5089329;28;20202;-60
2022/01/18 04:04:42;;;;;;;8.17;1.13;;;;;;;4.58;58.97;99982.38;5089763;28;20655;-59
2022/01/18 04:07:09;;;;;;;3.67;0.97;;;;;;;4.58;58.14;99991.81;5091256;28;20293;-59
2022/01/18 04:09:36;;;;;;;0.97;0.97;;;;;;;4.61;57.45;99989.25;5092270;28;20277;-59
2022/01/18 04:12:04;;;;;;;1.17;0.90;;;;;;;4.59;57.10;99998.66;5092478;28;20234;-59
2022/01/18 04:14:32;;;;;;;1.00;1.00;;;;;;;4.62;56.61;100008.97;5092465;28;20205;-59
2022/01/18 04:17:06;;;;;;;3.27;0.90;;;;;;;4.26;56.30;99959.16;5089861;28;20194;-59
2022/01/18 04:27:54;;;;;;;0.80;0.80;;;;;;;4.41;58.21;100044.84;5091368;28;20218;-59
2022/01/18 04:30:22;;;;;;;3.80;1.30;;;;;;;4.34;58.89;100060.25;5090864;28;20202;-55
2022/01/18 04:32:50;;;;;;;1.47;1.20;;;;;;;4.40;58.97;100066.28;5089424;28;20203;-55
2022/01/18 04:35:17;;;;;;;1.50;1.20;;;;;;;4.29;58.88;100069.63;5089180;28;20199;-55
2022/01/18 04:37:44;;;;;;;3.30;1.40;;;;;;;4.29;59.39;100079.91;5092191;28;20490;-55
2022/01/18 04:40:16;;;;;;;1.83;1.30;;;;;;;4.20;58.68;100079.84;5091568;28;20245;-54
2022/01/18 04:43:02;;;;;;;1.97;1.20;;;;;;;4.23;58.74;100082.47;5091979;28;20218;-55
2022/01/18 04:48:27;;;;;;;2.23;1.53;;;;;;;4.11;59.83;100077.25;5088716;28;20272;-55
2022/01/18 04:50:54;;;;;;;1.93;1.23;;;;;;;4.22;64.97;100085.88;5091451;28;20194;-54
2022/01/18 04:53:21;;;;;;;5.27;1.73;;;;;;;4.23;61.85;100089.31;5091682;28;20195;-54
2022/01/18 04:55:54;;;;;;;1.77;1.00;;;;;;;4.18;61.86;100081.56;5091536;28;20200;-54
2022/01/18 04:58:21;;;;;;;2.00;1.13;;;;;;;4.17;60.55;100092.72;5089371;28;20582;-54
2022/01/18 05:00:51;;;;;;;8.67;3.03;;;;;;;4.13;61.60;100106.38;5091157;28;20205;-55
2022/01/18 05:03:18;;;;;;;2.13;1.13;;;;;;;4.13;60.48;100110.66;5089246;28;20385;-54
2022/01/18 05:05:45;;;;;;;4.03;1.20;;;;;;;4.15;61.12;100135.50;5092390;28;20952;-55
2022/01/18 05:08:15;;;;;;;2.60;1.57;;;;;;;4.08;60.68;100140.56;5092423;28;20310;-55
2022/01/18 05:10:43;;;;;;;1.23;1.13;;;;;;;4.04;60.29;100142.28;5092400;28;20235;-56
2022/01/18 05:13:24;;;;;;;3.57;1.57;;;;;;;4.02;60.70;100151.69;5091496;28;20753;-54
2022/01/18 05:16:03;;;;;;;5.10;1.70;;;;;;;4.00;60.84;100158.50;5092655;28;20277;-55
2022/01/18 05:21:32;;;;;;;9.00;1.80;;;;;;;3.86;59.57;100158.38;5050284;28;20232;-55
2022/01/18 05:23:58;;;;;;;2.43;2.20;;;;;;;3.93;59.54;100173.03;5050102;28;20196;-55
2022/01/18 05:26:27;;;;;;;3.23;1.80;;;;;;;3.94;58.93;100169.59;5069540;28;20279;-55
2022/01/18 05:28:54;;;;;;;4.00;1.70;;;;;;;3.95;59.75;100179.00;5092375;28;20666;-56
2022/01/18 05:31:23;;;;;;;1.67;1.57;;;;;;;3.95;59.31;100185.88;5092299;28;20787;-59
2022/01/18 05:33:50;;;;;;;2.83;1.90;;;;;;;3.73;60.71;100194.19;5092398;28;20225;-59
2022/01/18 05:36:17;;;;;;;4.33;1.30;;;;;;;3.61;60.72;100180.41;5092368;28;20233;-59
2022/01/18 05:38:44;;;;;;;1.40;1.30;;;;;;;3.85;60.85;100205.44;5092160;28;20207;-56
2022/01/18 05:41:12;;;;;;;7.20;1.77;;;;;;;3.81;61.12;100205.44;5092127;28;20201;-55
2022/01/18 05:43:39;;;;;;;1.53;1.20;;;;;;;3.67;61.66;100213.00;5092116;28;20203;-55
2022/01/18 05:46:06;;;;;;;4.37;1.53;;;;;;;3.71;60.57;100211.31;5092005;28;20208;-56
2022/01/18 05:48:34;;;;;;;1.67;1.47;;;;;;;3.68;61.25;100213.84;5092361;28;20227;-56
2022/01/18 05:51:01;;;;;;;4.00;1.40;;;;;;;3.72;61.07;100223.31;5091973;28;20603;-55
2022/01/18 05:53:29;;;;;;;3.57;1.93;;;;;;;3.74;61.06;100219.91;5092057;28;20476;-56
2022/01/18 05:55:56;;;;;;;1.93;1.73;;;;;;;3.63;58.67;100212.09;5091889;28;20205;-56
2022/01/18 05:58:23;;;;;;;3.10;1.30;;;;;;;3.77;58.10;100237.03;5091895;28;20203;-59
2022/01/18 06:00:52;;;;;;;5.90;1.50;;;;;;;3.85;57.55;100236.28;5091690;28;20204;-60
2022/01/18 06:03:26;;;;;;;3.60;1.60;;;;;;;3.86;58.60;100244.84;5091811;28;20299;-61
2022/01/18 06:08:36;;;;;;;3.33;1.40;;;;;;;3.95;58.10;100252.66;5068785;28;20228;-59
2022/01/18 06:11:03;;;;;;;3.87;1.60;;;;;;;3.98;58.28;100257.78;5091182;28;20230;-59
2022/01/18 06:13:30;;;;;;;1.70;1.50;;;;;;;4.03;58.91;100261.28;5091694;28;20297;-59
2022/01/18 06:15:57;;;;;;;5.80;1.93;;;;;;;4.03;58.83;100268.13;5083446;28;20640;-59
2022/01/18 06:18:23;;;;;;;3.33;1.30;;;;;;;3.98;58.34;100244.94;5070893;28;20305;-55
2022/01/18 06:20:50;;;;;;;2.47;1.90;;;;;;;4.12;58.99;100257.94;5070488;28;20302;-59
2022/01/18 06:23:19;;;;;;;2.63;1.67;;;;;;;4.04;59.63;100255.31;5070112;28;20680;-59
2022/01/18 06:25:46;;;;;;;3.77;1.57;;;;;;;4.03;59.92;100247.56;5070413;28;20594;-55
2022/01/18 06:28:13;;;;;;;1.83;1.70;;;;;;;4.01;60.17;100238.16;5084496;28;20222;-59
2022/01/18 06:30:40;;;;;;;2.33;1.80;;;;;;;4.06;60.24;100242.47;5089560;28;20258;-59
2022/01/18 06:33:07;;;;;;;2.57;1.90;;;;;;;3.98;60.89;100247.53;5091325;28;20223;-59
2022/01/18 06:35:34;;;;;;;2.37;1.70;;;;;;;3.97;61.05;100238.94;5090008;28;20592;-59
2022/01/18 06:38:01;;;;;;;1.97;1.87;;;;;;;4.03;61.73;100237.31;5088875;28;20218;-59
2022/01/18 06:40:29;;;;;;;1.97;1.73;;;;;;;4.11;61.70;100240.78;5090086;28;20234;-62
2022/01/18 06:42:56;;;;;;;3.10;1.93;;;;;;;4.14;62.08;100249.41;5088920;27;20215;-60
2022/01/18 06:45:23;;;;;;;3.83;2.07;;;;;;;4.15;62.32;100258.81;5089515;28;20259;-59
2022/01/18 06:47:50;;;;;;;2.33;1.83;;;;;;;4.11;62.75;100258.78;5089536;28;20223;-59
2022/01/18 06:50:16;;;;;;;2.10;1.67;;;;;;;4.04;63.17;100223.63;5090474;28;20215;-59
2022/01/18 06:52:43;;;;;;;2.10;1.83;;;;;;;4.06;63.51;100253.63;5089794;28;20224;-60
2022/01/18 06:55:12;;;;;;;2.33;1.43;;;;;;;4.10;63.50;100259.63;5090709;28;20253;-59
2022/01/18 06:57:40;;;;;;;2.13;1.80;;;;;;;4.23;63.58;100277.72;5090551;28;20609;-59
2022/01/18 07:00:09;;;;;;;2.73;1.90;;;;;;;4.14;63.56;100267.38;5090664;28;20221;-59
2022/01/18 07:02:36;;;;;;;4.57;1.83;;;;;;;4.11;63.44;100249.38;5090361;28;20698;-59
2022/01/18 07:05:03;;;;;;;2.40;1.80;;;;;;;4.24;63.36;100284.59;5088631;28;20216;-60
2022/01/18 07:07:30;;;;;;;4.37;2.30;;;;;;;4.27;63.29;100286.34;5087968;28;20262;-58
2022/01/18 07:09:57;;;;;;;4.93;1.77;;;;;;;4.20;64.05;100270.00;5089047;28;20205;-59
2022/01/18 07:12:25;;;;;;;3.27;2.17;;;;;;;4.23;63.90;100264.88;5089581;28;20234;-60
2022/01/18 07:14:53;;;;;;;2.60;1.80;;;;;;;4.20;63.87;100274.28;5088716;28;20199;-59
2022/01/18 07:17:20;;;;;;;3.00;1.60;;;;;;;4.20;63.67;100281.97;5089744;28;20908;-59
2022/01/18 07:19:47;;;;;;;5.47;2.97;;;;;;;4.26;63.64;100290.63;5089495;28;20586;-55
2022/01/18 07:22:14;;;;;;;2.00;1.53;;;;;;;4.26;64.14;100298.31;5089430;28;20208;-56
2022/01/18 07:24:43;;;;;;;3.57;1.93;;;;;;;4.26;64.90;100295.75;5089698;28;20218;-55
2022/01/18 07:27:12;;;;;;;2.20;1.67;;;;;;;4.34;64.79;100303.53;5073316;28;20609;-58
2022/01/18 07:29:41;;;;;;;3.33;1.93;;;;;;;4.36;64.61;100312.97;5086597;28;20667;-55
2022/01/18 07:32:11;;;;;;;5.87;2.13;;;;;;;4.38;65.25;100325.84;5089346;28;20209;-56
2022/01/18 07:34:45;;;;;;;7.23;2.20;;;;;;;4.40;65.13;100331.00;5089332;28;20319;-56
2022/01/18 07:37:12;;;;;;;3.10;1.90;;;;;;;4.52;64.85;100344.81;5089151;28;20199;-55
2022/01/18 07:39:39;;;;;;;5.03;1.83;;;;;;;4.56;65.20;100351.69;5089674;28;20709;-55
2022/01/18 07:42:07;;;;;;;3.43;1.77;;;;;;;4.64;65.01;100356.91;5091841;28;20195;-55
2022/01/18 07:44:34;;;;;;;4.63;2.03;;;;;;;4.56;64.49;100327.72;5093378;28;20199;-56
2022/01/18 07:47:01;;;;;;;2.17;1.73;;;;;;;4.72;64.15;100351.00;5093210;28;20294;-55
2022/01/18 07:49:29;;;;;;;2.80;1.90;;;;;;;4.79;63.59;100363.88;5093267;28;20697;-54
2022/01/18 07:51:56;;;;;;;2.90;1.90;;;;;;;4.81;63.72;100367.34;5093376;28;20203;-55
2022/01/18 07:54:23;;;;;;;3.67;2.13;;;;;;;4.85;62.91;100359.69;5093323;28;20195;-55
2022/01/18 07:56:50;;;;;;;2.30;1.87;;;;;;;4.96;62.41;100367.47;5093166;28;20197;-55
2022/01/18 07:59:17;;;;;;;3.47;2.30;;;;;;;5.00;62.29;100349.47;5093180;28;20217;-55
2022/01/18 08:01:44;;;;;;;6.17;2.30;;;;;;;5.00;61.63;100352.06;5093113;28;20195;-56
2022/01/18 08:04:11;;;;;;;4.80;2.20;;;;;;;5.13;61.72;100363.28;5093026;28;20211;-56
2022/01/18 08:06:40;;;;;;;2.10;1.90;;;;;;;5.08;61.24;100370.09;5093296;28;20199;-55
2022/01/18 08:09:07;;;;;;;2.83;2.27;;;;;;;5.04;60.81;100389.84;5086666;28;20774;-55
2022/01/18 08:11:34;;;;;;;8.07;2.53;;;;;;;4.99;61.32;100370.91;5088248;28;20230;-56
2022/01/18 08:14:02;;;;;;;2.87;2.00;;;;;;;5.07;60.99;100384.72;5091641;28;20314;-55
2022/01/18 08:16:47;;;;;;;9.40;3.00;;;;;;;5.06;60.97;100393.28;5092026;28;20235;-55
2022/01/18 08:19:14;;;;;;;4.97;2.13;;;;;;;5.15;60.80;100396.75;5091829;28;20991;-56
2022/01/18 08:21:43;;;;;;;3.23;2.57;;;;;;;5.18;60.29;100399.38;5092506;28;20192;-56
2022/01/18 08:24:10;;;;;;;4.57;2.60;;;;;;;5.18;60.06;100389.06;5092465;28;20202;-57
2022/01/18 08:26:37;;;;;;;5.30;3.17;;;;;;;5.24;59.59;100386.53;5092598;28;20268;-55
2022/01/18 08:29:04;;;;;;;4.43;2.07;;;;;;;5.28;59.36;100385.72;5092212;28;20219;-56
2022/01/18 08:31:31;;;;;;;3.53;2.00;;;;;;;5.30;58.23;100404.59;5092272;28;20199;-55
2022/01/18 08:33:58;;;;;;;3.43;1.80;;;;;;;5.35;58.44;100415.78;5092362;28;20199;-55
2022/01/18 08:36:25;;;;;;;3.03;2.13;;;;;;;5.35;58.33;100410.63;5092314;28;20195;-56
2022/01/18 08:38:54;;;;;;;10.63;2.70;;;;;;;5.38;57.99;100408.06;5093023;28;20206;-55
2022/01/18 08:41:21;;;;;;;2.40;2.20;;;;;;;5.31;58.16;100414.00;5093266;28;20685;-56
2022/01/18 08:43:49;;;;;;;4.83;1.73;;;;;;;5.38;57.74;100420.94;5092843;28;20202;-56
2022/01/18 08:46:17;;;;;;;3.07;2.47;;;;;;;5.27;57.30;100408.00;5092930;28;20203;-56
2022/01/18 08:48:44;;;;;;;1.90;1.80;;;;;;;5.47;57.77;100434.75;5092970;28;20227;-57
2022/01/18 08:51:11;;;;;;;2.30;2.10;;;;;;;5.52;57.50;100437.34;5093070;28;20195;-59
2022/01/18 08:53:38;;;;;;;5.93;2.13;;;;;;;5.57;57.08;100432.22;5091655;28;20198;-57
2022/01/18 08:56:07;;;;;;;3.53;2.03;;;;;;;5.44;56.62;100421.84;5092696;28;20206;-56
2022/01/18 08:58:34;;;;;;;3.13;2.00;;;;;;;5.54;57.44;100433.06;5092737;28;20196;-56
2022/01/18 09:01:02;;;;;;;3.73;2.47;;;;;;;5.67;57.47;100434.00;5092849;28;20203;-56
2022/01/18 09:03:28;;;;;;;2.90;1.93;;;;;;;5.42;56.74;100394.34;5090272;28;20231;-55
2022/01/18 09:05:56;;;;;;;2.50;2.17;;;;;;;5.64;57.60;100434.00;5091343;28;20272;-56
2022/01/18 09:08:24;;;;;;;3.37;1.97;;;;;;;5.66;57.58;100427.97;5090889;28;20314;-56
2022/01/18 09:10:52;;;;;;;1.90;1.70;;;;;;;5.65;56.93;100421.09;5091864;28;20788;-55
2022/01/18 09:13:22;;;;;;;4.40;2.20;;;;;;;5.68;57.24;100435.72;5091847;28;20234;-56
2022/01/18 09:15:50;;;;;;;9.50;2.63;;;;;;;5.50;58.09;100395.28;5092093;28;20200;-55
2022/01/18 09:18:17;;;;;;;2.20;2.00;;;;;;;5.75;56.78;100422.03;5091630;28;20195;-55
2022/01/18 09:20:44;;;;;;;3.50;2.13;;;;;;;5.82;57.16;100424.63;5091279;28;20199;-55
2022/01/18 09:23:11;;;;;;;2.50;2.30;;;;;;;5.73;57.33;100404.00;5092357;28;20203;-55
2022/01/18 09:25:38;;;;;;;4.43;2.70;;;;;;;5.95;57.09;100424.72;5092242;28;20191;-56
2022/01/18 09:28:05;;;;;;;2.67;2.33;;;;;;;6.01;55.93;100429.91;5092161;28;20225;-56
2022/01/18 09:30:34;;;;;;;4.00;2.60;;;;;;;6.07;56.30;100429.94;5091994;28;20203;-59
2022/01/18 09:33:02;;;;;;;2.40;2.20;;;;;;;6.06;55.70;100429.06;5091722;28;20256;-59
2022/01/18 09:35:29;;;;;;;2.70;2.50;;;;;;;6.04;55.38;100428.22;5091023;28;20286;-59
2022/01/18 09:37:57;;;;;;;2.17;1.90;;;;;;;5.96;54.83;100414.44;5091115;28;20217;-59
2022/01/18 09:40:23;;;;;;;7.13;2.03;;;;;;;6.16;54.85;100429.97;5091393;28;20196;-60
2022/01/18 09:42:54;;;;;;;4.50;2.70;;;;;;;6.19;54.42;100419.69;5091627;28;20197;-59
2022/01/18 09:45:22;;;;;;;4.03;2.33;;;;;;;6.01;55.02;100424.75;5092138;28;20203;-59
2022/01/18 09:47:53;;;;;;;8.00;2.80;;;;;;;6.08;55.17;100416.19;5091576;28;20608;-59
2022/01/18 09:50:22;;;;;;;5.47;2.63;;;;;;;6.11;54.55;100417.06;5090998;28;20196;-59
2022/01/18 09:52:53;;;;;;;3.73;3.03;;;;;;;6.11;55.23;100421.34;5091666;28;20238;-60
2022/01/18 09:55:20;;;;;;;5.83;2.33;;;;;;;5.97;54.80;100384.38;5090668;28;20683;-59
2022/01/18 09:57:47;;;;;;;6.17;2.20;;;;;;;6.16;54.77;100409.34;5091455;28;20226;-59
2022/01/18 10:00:15;;;;;;;3.10;2.43;;;;;;;6.13;54.67;100404.19;5091612;28;20197;-61
2022/01/18 10:02:43;;;;;;;3.93;2.10;;;;;;;6.17;54.56;100405.91;5091894;28;20201;-59
2022/01/18 10:05:23;;;;;;;6.37;2.57;;;;;;;6.18;54.85;100394.75;5091705;28;20290;-60
2022/01/18 10:08:00;;;;;;;9.93;3.03;;;;;;;6.17;54.68;100395.59;5091571;28;20697;-58
2022/01/18 10:10:38;;;;;;;8.87;2.90;;;;;;;6.14;54.90;100380.97;5091563;28;20590;-60
2022/01/18 10:13:06;;;;;;;5.20;3.33;;;;;;;6.25;54.72;100375.84;5091149;28;20235;-59
2022/01/18 10:15:34;;;;;;;4.30;2.80;;;;;;;6.27;55.34;100371.56;5091388;28;20205;-59
2022/01/18 10:18:06;;;;;;;3.50;2.30;;;;;;;6.34;54.94;100368.13;5091718;28;20229;-58
2022/01/18 10:20:49;;;;;;;3.57;2.07;;;;;;;6.17;54.29;100346.63;5091398;28;20196;-59
2022/01/18 10:23:23;;;;;;;5.63;2.70;;;;;;;6.18;53.72;100340.63;5091097;28;20504;-59
2022/01/18 10:25:51;;;;;;;5.10;2.10;;;;;;;6.30;53.39;100368.16;5091363;28;20217;-59
2022/01/18 10:28:33;;;;;;;3.40;2.30;;;;;;;6.28;53.83;100362.97;5091113;28;20221;-59
2022/01/18 10:31:05;;;;;;;2.63;2.43;;;;;;;6.24;53.29;100356.09;5091261;28;20195;-59
2022/01/18 10:33:37;;;;;;;11.53;3.03;;;;;;;6.27;53.87;100353.53;5090949;28;20244;-59
2022/01/18 10:36:12;;;;;;;5.77;2.43;;;;;;;6.31;52.65;100347.53;5091210;28;20195;-60
2022/01/18 10:38:40;;;;;;;2.97;2.67;;;;;;;6.23;54.03;100332.88;5082858;28;20215;-60
2022/01/18 10:41:24;;;;;;;6.33;2.50;;;;;;;6.26;54.55;100338.06;5069803;28;20220;-60
2022/01/18 10:44:04;;;;;;;2.63;2.17;;;;;;;6.44;54.59;100327.75;5069643;28;20212;-59
2022/01/18 10:46:35;;;;;;;3.30;2.60;;;;;;;6.36;53.82;100316.56;5069928;28;20226;-59
2022/01/18 10:49:02;;;;;;;3.20;2.50;;;;;;;6.56;52.90;100336.34;5087894;28;20284;-59
2022/01/18 10:51:33;;;;;;;3.57;2.60;;;;;;;6.66;53.33;100344.13;5090614;28;20191;-59
2022/01/18 10:54:01;;;;;;;3.77;2.83;;;;;;;6.72;52.59;100333.78;5090467;28;20195;-59
2022/01/18 10:56:38;;;;;;;4.33;2.47;;;;;;;6.73;52.11;100336.38;5090316;28;20195;-58
2022/01/18 10:59:05;;;;;;;4.80;2.10;;;;;;;6.75;51.72;100354.44;5090591;28;20191;-58
2022/01/18 11:01:32;;;;;;;4.63;1.93;;;;;;;6.61;50.96;100340.66;5090542;28;20291;-59
2022/01/18 11:04:14;;;;;;;2.13;2.00;;;;;;;6.47;50.97;100315.72;5090321;28;20561;-59
2022/01/18 11:06:57;;;;;;;1.93;1.70;;;;;;;6.59;51.22;100332.06;5090441;28;20203;-59
2022/01/18 11:09:24;;;;;;;4.20;2.10;;;;;;;6.57;51.29;100329.47;5088398;28;20242;-58
2022/01/18 11:11:51;;;;;;;2.63;2.27;;;;;;;6.41;51.81;100296.81;5078687;28;20239;-58
2022/01/18 11:14:22;;;;;;;4.23;3.10;;;;;;;6.69;52.37;100331.22;5070219;28;20203;-59
2022/01/18 11:16:50;;;;;;;5.10;3.57;;;;;;;6.71;52.00;100330.34;5069693;28;20761;-59
2022/01/18 11:19:31;;;;;;;2.47;2.27;;;;;;;6.74;52.25;100329.50;5070051;28;20195;-59
2022/01/18 11:22:02;;;;;;;3.80;2.30;;;;;;;6.74;52.61;100321.75;5070020;28;20355;-55
2022/01/18 11:24:30;;;;;;;4.13;2.30;;;;;;;6.76;53.09;100320.91;5069759;28;20196;-55
2022/01/18 11:26:59;;;;;;;7.70;3.33;;;;;;;6.77;53.40;100324.34;5069573;28;20269;-55
2022/01/18 11:29:27;;;;;;;14.27;3.60;;;;;;;6.74;53.22;100332.06;5069804;28;20242;-55
2022/01/18 11:31:56;;;;;;;2.67;2.47;;;;;;;6.73;52.30;100315.75;5069516;28;20200;-55
2022/01/18 11:34:34;;;;;;;6.17;2.53;;;;;;;6.86;51.84;100332.06;5070027;28;20210;-55
2022/01/18 11:37:12;;;;;;;8.47;2.90;;;;;;;6.97;57.47;100332.06;5076044;28;20237;-55
2022/01/18 11:39:39;;;;;;;5.57;2.07;;;;;;;6.96;51.55;100341.53;5072746;28;20204;-55
2022/01/18 11:42:09;;;;;;;6.90;2.67;;;;;;;6.91;52.02;100332.91;5069705;28;20199;-55
2022/01/18 11:44:36;;;;;;;6.60;3.67;;;;;;;7.01;52.51;100328.59;5069599;28;20723;-54
2022/01/18 11:47:05;;;;;;;11.73;3.27;;;;;;;6.91;52.13;100335.50;5069895;28;20512;-55
2022/01/18 11:49:33;;;;;;;7.10;2.90;;;;;;;6.70;52.18;100333.78;5086836;28;20599;-55
2022/01/18 11:52:05;;;;;;;6.73;3.10;;;;;;;6.89;53.16;100334.63;5089679;28;20205;-55
2022/01/18 11:54:43;;;;;;;12.17;2.70;;;;;;;6.92;51.46;100337.22;5089478;28;20202;-55
2022/01/18 11:57:35;;;;;;;17.23;3.97;;;;;;;6.76;53.18;100320.03;5087634;28;20281;-54
2022/01/18 12:00:24;;;;;;;9.00;2.77;;;;;;;6.83;53.49;100326.91;5089406;28;20191;-55
2022/01/18 12:02:55;;;;;;;15.57;4.10;;;;;;;6.52;53.09;100274.47;5089819;28;20199;-55
2022/01/18 12:05:25;;;;;;;8.67;3.20;;;;;;;6.77;53.56;100311.44;5089676;28;20335;-57
2022/01/18 12:07:59;;;;;;;3.00;2.40;;;;;;;6.78;52.91;100313.13;5090053;28;20567;-56
2022/01/18 12:10:49;;;;;;;7.53;4.00;;;;;;;6.89;52.66;100334.63;5089653;28;20409;-56
2022/01/18 12:13:29;;;;;;;3.13;2.30;;;;;;;6.84;53.33;100324.31;5089755;28;20641;-55
2022/01/18 12:15:58;;;;;;;5.03;2.37;;;;;;;6.95;52.09;100337.22;5089546;28;20199;-57
2022/01/18 12:18:27;;;;;;;4.23;2.73;;;;;;;6.86;51.66;100329.50;5089592;28;20282;-55
2022/01/18 12:20:56;;;;;;;3.53;2.53;;;;;;;6.78;51.87;100336.34;5089685;28;20278;-55
2022/01/18 12:23:26;;;;;;;5.27;2.10;;;;;;;6.77;52.42;100338.06;5085120;28;20725;-56
2022/01/18 12:26:00;;;;;;;4.27;3.17;;;;;;;6.80;53.72;100344.97;5068255;28;20224;-56
2022/01/18 12:28:49;;;;;;;3.73;2.40;;;;;;;6.81;53.25;100326.91;5071984;28;20306;-56
2022/01/18 12:34:37;;;;;;;8.83;2.77;;;;;;;6.78;52.92;100323.44;5062184;28;20314;-55
2022/01/18 12:37:33;;;;;;;4.33;2.30;;;;;;;6.83;53.18;100327.75;5072908;28;20277;-55
2022/01/18 12:40:07;;;;;;;2.90;2.63;;;;;;;6.88;53.54;100328.59;5079574;28;20233;-55
2022/01/18 12:45:22;;;;;;;2.53;2.10;;;;;;;6.87;52.49;100336.38;5093203;28;20324;-56